createdAt,value
2023-01-28T00:01:22.747Z,3.96
2023-01-28T00:03:53.123Z,3.94
2023-01-28T00:06:20.376Z,3.93
2023-01-28T00:08:47.270Z,3.93
2023-01-28T00:11:14.494Z,4.02
2023-01-28T00:13:42.266Z,3.99
2023-01-28T00:16:10.113Z,3.99
2023-01-28T00:18:37.838Z,3.96
2023-01-28T00:21:10.834Z,3.96
2023-01-28T00:23:40.083Z,4.00
2023-01-28T00:26:13.721Z,3.97
2023-01-28T00:28:42.138Z,3.94
2023-01-28T00:31:17.145Z,3.90
2023-01-28T00:33:45.940Z,3.90
2023-01-28T00:36:14.074Z,3.87
2023-01-28T00:38:42.242Z,3.88
2023-01-28T00:41:10.922Z,3.88
2023-01-28T00:43:38.737Z,3.85
2023-01-28T00:46:07.470Z,3.87
2023-01-28T00:48:35.490Z,3.86
2023-01-28T00:51:02.805Z,3.88
2023-01-28T00:53:31.390Z,3.91
2023-01-28T00:55:58.408Z,3.92
2023-01-28T00:58:25.354Z,3.91
2023-01-28T01:00:52.773Z,3.91
2023-01-28T01:03:20.471Z,3.90
2023-01-28T01:05:47.699Z,3.87
2023-01-28T01:08:14.605Z,3.86
2023-01-28T01:10:41.533Z,3.84
2023-01-28T01:13:08.852Z,3.85
2023-01-28T01:15:35.799Z,3.85
2023-01-28T01:18:02.716Z,3.85
2023-01-28T01:20:33.444Z,3.86
2023-01-28T01:23:00.359Z,3.91
2023-01-28T01:25:27.363Z,3.89
2023-01-28T01:27:54.267Z,3.87
2023-01-28T01:30:22.392Z,3.86
2023-01-28T01:32:49.519Z,3.84
2023-01-28T01:35:16.741Z,3.86
2023-01-28T01:37:44.971Z,3.85
2023-01-28T01:40:12.234Z,3.83
2023-01-28T01:42:39.182Z,3.83
2023-01-28T01:45:14.885Z,3.83
2023-01-28T01:48:02.038Z,3.80
2023-01-28T01:50:35.278Z,3.80
2023-01-28T01:53:12.079Z,3.75
2023-01-28T01:55:43.907Z,3.75
2023-01-28T01:58:16.783Z,3.74
2023-01-28T02:00:43.783Z,3.76
2023-01-28T02:03:11.543Z,3.72
2023-01-28T02:05:39.417Z,3.74
2023-01-28T02:08:22.060Z,3.70
2023-01-28T02:10:56.222Z,3.68
2023-01-28T02:13:28.977Z,3.68
2023-01-28T02:15:58.035Z,3.64
2023-01-28T02:18:24.873Z,3.60
2023-01-28T02:21:35.192Z,3.61
2023-01-28T02:24:10.867Z,3.61
2023-01-28T02:27:23.447Z,3.62
2023-01-28T02:30:04.262Z,3.62
2023-01-28T02:32:48.115Z,3.59
2023-01-28T02:35:41.604Z,3.58
2023-01-28T02:38:26.451Z,3.57
2023-01-28T02:41:06.545Z,3.56
2023-01-28T02:43:37.132Z,3.59
2023-01-28T02:46:39.803Z,3.60
2023-01-28T02:49:38.760Z,3.59
2023-01-28T02:52:57.126Z,3.60
2023-01-28T02:56:19.276Z,3.59
2023-01-28T02:59:34.025Z,3.56
2023-01-28T03:02:45.113Z,3.57
2023-01-28T03:05:27.219Z,3.51
2023-01-28T03:07:54.390Z,3.51
2023-01-28T03:10:24.928Z,3.45
2023-01-28T03:13:16.699Z,3.38
2023-01-28T03:16:08.500Z,3.33
2023-01-28T03:19:10.963Z,3.35
2023-01-28T03:22:02.082Z,3.36
2023-01-28T03:25:14.570Z,3.39
2023-01-28T03:28:17.494Z,3.39
2023-01-28T03:31:27.965Z,3.37
2023-01-28T03:34:15.681Z,3.39
2023-01-28T03:37:09.774Z,3.40
2023-01-28T03:39:37.645Z,3.41
2023-01-28T03:42:05.892Z,3.41
2023-01-28T03:44:52.208Z,3.40
2023-01-28T03:47:21.317Z,3.39
2023-01-28T03:49:50.986Z,3.40
2023-01-28T03:52:21.685Z,3.44
2023-01-28T03:54:49.234Z,3.42
2023-01-28T03:57:17.982Z,3.39
2023-01-28T03:59:45.052Z,3.36
2023-01-28T04:02:13.045Z,3.36
2023-01-28T04:04:41.255Z,3.30
2023-01-28T04:07:10.733Z,3.31
2023-01-28T04:09:38.012Z,3.31
2023-01-28T04:12:05.460Z,3.29
2023-01-28T04:14:32.849Z,3.27
2023-01-28T04:17:00.391Z,3.35
2023-01-28T04:19:28.399Z,3.35
2023-01-28T04:21:56.659Z,3.30
2023-01-28T04:24:23.972Z,3.29
2023-01-28T04:26:50.884Z,3.30
2023-01-28T04:29:17.828Z,3.32
2023-01-28T04:31:44.679Z,3.31
2023-01-28T04:34:11.576Z,3.31
2023-01-28T04:36:38.433Z,3.29
2023-01-28T04:39:05.304Z,3.28
2023-01-28T04:41:32.182Z,3.29
2023-01-28T04:43:59.093Z,3.29
2023-01-28T04:46:25.950Z,3.28
2023-01-28T04:48:52.882Z,3.29
2023-01-28T04:51:19.728Z,3.26
2023-01-28T04:53:46.535Z,3.21
2023-01-28T04:56:13.387Z,3.23
2023-01-28T04:58:40.283Z,3.25
2023-01-28T05:01:07.158Z,3.23
2023-01-28T05:03:36.243Z,3.24
2023-01-28T05:06:05.079Z,3.23
2023-01-28T05:08:32.037Z,3.21
2023-01-28T05:10:58.873Z,3.20
2023-01-28T05:13:25.703Z,3.19
2023-01-28T05:15:55.646Z,3.20
2023-01-28T05:18:22.544Z,3.19
2023-01-28T05:20:49.518Z,3.19
2023-01-28T05:23:16.341Z,3.19
2023-01-28T05:25:43.145Z,3.18
2023-01-28T05:28:09.999Z,3.22
2023-01-28T05:30:39.043Z,3.20
2023-01-28T05:33:06.055Z,3.23
2023-01-28T05:35:33.164Z,3.23
2023-01-28T05:38:00.054Z,3.22
2023-01-28T05:40:26.999Z,3.21
2023-01-28T05:42:53.890Z,3.20
2023-01-28T05:45:21.604Z,3.19
2023-01-28T05:47:48.566Z,3.20
2023-01-28T05:50:16.646Z,3.23
2023-01-28T05:52:44.156Z,3.23
2023-01-28T05:55:11.292Z,3.17
2023-01-28T05:57:38.224Z,3.17
2023-01-28T06:00:06.068Z,3.17
2023-01-28T06:02:33.246Z,3.19
2023-01-28T06:05:00.697Z,3.16
2023-01-28T06:07:27.603Z,3.17
2023-01-28T06:09:54.443Z,3.12
2023-01-28T06:12:21.281Z,3.10
2023-01-28T06:14:48.165Z,3.10
2023-01-28T06:17:15.042Z,3.08
2023-01-28T06:19:41.962Z,3.07
2023-01-28T06:22:09.061Z,3.07
2023-01-28T06:24:36.298Z,3.10
2023-01-28T06:27:03.152Z,3.10
2023-01-28T06:29:30.001Z,3.11
2023-01-28T06:31:56.884Z,3.12
2023-01-28T06:34:23.805Z,3.10
2023-01-28T06:36:53.021Z,3.15
2023-01-28T06:39:22.013Z,3.14
2023-01-28T06:41:50.205Z,3.12
2023-01-28T06:44:17.102Z,3.11
2023-01-28T06:46:44.027Z,3.09
2023-01-28T06:49:11.061Z,3.07
2023-01-28T06:51:37.996Z,3.06
2023-01-28T06:54:05.269Z,3.02
2023-01-28T06:56:32.563Z,3.04
2023-01-28T06:58:59.450Z,3.08
2023-01-28T07:01:26.454Z,3.10
2023-01-28T07:03:53.360Z,3.07
2023-01-28T07:06:20.232Z,3.06
2023-01-28T07:08:47.955Z,3.08
2023-01-28T07:11:15.946Z,3.12
2023-01-28T07:13:43.551Z,3.09
2023-01-28T07:16:10.429Z,3.10
2023-01-28T07:18:37.341Z,3.11
2023-01-28T07:21:04.480Z,3.11
2023-01-28T07:23:31.503Z,3.11
2023-01-28T07:26:03.393Z,3.12
2023-01-28T07:28:30.634Z,3.12
2023-01-28T07:30:57.939Z,3.15
2023-01-28T07:33:25.089Z,3.10
2023-01-28T07:35:51.986Z,3.14
2023-01-28T07:38:18.789Z,3.14
2023-01-28T07:40:46.670Z,3.17
2023-01-28T07:43:13.774Z,3.17
2023-01-28T07:45:40.784Z,3.19
2023-01-28T07:48:10.526Z,3.21
2023-01-28T07:50:38.366Z,3.24
2023-01-28T07:53:07.908Z,3.25
2023-01-28T07:55:36.031Z,3.27
2023-01-28T07:58:06.000Z,3.27
2023-01-28T08:00:35.830Z,3.24
2023-01-28T08:03:06.513Z,3.24
2023-01-28T08:05:46.626Z,3.26
2023-01-28T08:08:14.077Z,3.29
2023-01-28T08:10:41.566Z,3.30
2023-01-28T08:13:11.592Z,3.30
2023-01-28T08:15:38.916Z,3.32
2023-01-28T08:18:08.820Z,3.38
2023-01-28T08:20:36.666Z,3.41
2023-01-28T08:23:12.472Z,3.43
2023-01-28T08:25:39.977Z,3.44
2023-01-28T08:28:07.953Z,3.46
2023-01-28T08:30:37.920Z,3.44
2023-01-28T08:33:07.629Z,3.43
2023-01-28T08:35:35.325Z,3.45
2023-01-28T08:38:04.439Z,3.48
2023-01-28T08:40:31.957Z,3.52
2023-01-28T08:42:59.073Z,3.53
2023-01-28T08:45:28.157Z,3.50
2023-01-28T08:48:03.316Z,3.52
2023-01-28T08:50:34.372Z,3.53
2023-01-28T08:53:07.237Z,3.55
2023-01-28T08:55:34.817Z,3.57
2023-01-28T08:58:12.202Z,3.60
2023-01-28T09:00:39.911Z,3.63
2023-01-28T09:03:07.712Z,3.66
2023-01-28T09:05:36.431Z,3.72
2023-01-28T09:08:14.628Z,3.68
2023-01-28T09:10:42.276Z,3.71
2023-01-28T09:13:13.072Z,3.71
2023-01-28T09:15:40.357Z,3.68
2023-01-28T09:18:07.402Z,3.72
2023-01-28T09:20:35.014Z,3.78
2023-01-28T09:23:02.267Z,3.82
2023-01-28T09:25:30.027Z,3.86
2023-01-28T09:27:58.301Z,3.91
2023-01-28T09:30:25.968Z,3.99
2023-01-28T09:32:54.896Z,4.05
2023-01-28T09:35:22.192Z,4.06
2023-01-28T09:37:49.169Z,4.09
2023-01-28T09:40:21.633Z,4.08
2023-01-28T09:43:07.603Z,4.12
2023-01-28T09:45:42.888Z,4.12
2023-01-28T09:48:18.652Z,4.07
2023-01-28T09:50:51.442Z,4.05
2023-01-28T09:53:28.852Z,4.08
2023-01-28T09:56:00.039Z,4.09
2023-01-28T09:58:26.990Z,4.13
2023-01-28T10:01:36.558Z,4.21
2023-01-28T10:04:40.862Z,4.18
2023-01-28T10:07:41.169Z,4.18
2023-01-28T10:10:20.297Z,4.19
2023-01-28T10:12:59.422Z,4.21
2023-01-28T10:15:50.511Z,4.20
2023-01-28T10:18:31.155Z,4.24
2023-01-28T10:21:26.475Z,4.29
2023-01-28T10:24:26.097Z,4.35
2023-01-28T10:26:53.361Z,4.45
2023-01-28T10:29:25.140Z,4.49
2023-01-28T10:32:31.203Z,4.40
2023-01-28T10:35:04.582Z,4.38
2023-01-28T10:37:35.787Z,4.38
2023-01-28T10:40:04.442Z,4.32
2023-01-28T10:42:37.394Z,4.25
2023-01-28T10:45:44.723Z,4.28
2023-01-28T10:48:24.099Z,4.21
2023-01-28T10:51:02.649Z,4.25
2023-01-28T10:53:46.632Z,4.20
2023-01-28T10:56:29.301Z,4.19
2023-01-28T10:59:20.445Z,4.26
2023-01-28T11:02:02.571Z,4.29
2023-01-28T11:04:34.859Z,4.31
2023-01-28T11:07:06.896Z,4.34
2023-01-28T11:09:38.287Z,4.36
2023-01-28T11:12:31.486Z,4.43
2023-01-28T11:15:03.758Z,4.41
2023-01-28T11:17:39.852Z,4.44
2023-01-28T11:20:19.844Z,4.38
2023-01-28T11:22:48.228Z,4.40
2023-01-28T11:25:25.145Z,4.43
2023-01-28T11:27:55.479Z,4.50
2023-01-28T11:30:40.779Z,4.58
2023-01-28T11:33:26.657Z,4.61
2023-01-28T11:36:05.452Z,4.64
2023-01-28T11:38:32.430Z,4.64
2023-01-28T11:41:01.367Z,4.65
2023-01-28T11:43:31.277Z,4.65
2023-01-28T11:46:18.861Z,4.69
2023-01-28T11:49:12.114Z,4.78
2023-01-28T11:52:23.682Z,4.84
2023-01-28T11:55:23.447Z,4.87
2023-01-28T11:58:19.020Z,4.83
2023-01-28T12:00:49.139Z,4.78
2023-01-28T12:04:10.693Z,4.81
2023-01-28T12:07:15.619Z,4.85
2023-01-28T12:10:07.783Z,4.85
2023-01-28T12:12:41.206Z,4.86
2023-01-28T12:15:31.964Z,4.92
2023-01-28T12:18:32.629Z,4.94
2023-01-28T12:21:12.264Z,5.02
2023-01-28T12:24:32.141Z,5.03
2023-01-28T12:27:11.943Z,4.97
2023-01-28T12:29:47.610Z,4.87
2023-01-28T12:32:53.313Z,4.83
2023-01-28T12:35:40.025Z,4.81
2023-01-28T12:38:48.883Z,4.73
2023-01-28T12:41:20.979Z,4.72
2023-01-28T12:44:33.170Z,4.59
2023-01-28T12:47:07.763Z,4.52
2023-01-28T12:49:51.611Z,4.52
2023-01-28T12:52:31.367Z,4.51
2023-01-28T12:55:15.746Z,4.55
2023-01-28T12:57:44.058Z,4.52
2023-01-28T13:00:27.989Z,4.48
2023-01-28T13:03:19.960Z,4.49
2023-01-28T13:06:02.021Z,4.54
2023-01-28T13:08:29.823Z,4.51
2023-01-28T13:11:03.416Z,4.47
2023-01-28T13:13:42.741Z,4.47
2023-01-28T13:16:11.820Z,4.46
2023-01-28T13:18:42.452Z,4.45
2023-01-28T13:21:24.242Z,4.42
2023-01-28T13:24:05.759Z,4.39
2023-01-28T13:26:57.559Z,4.35
2023-01-28T13:29:24.310Z,4.30
2023-01-28T13:31:55.747Z,4.26
2023-01-28T13:34:44.105Z,4.24
2023-01-28T13:37:32.342Z,4.25
2023-01-28T13:40:26.064Z,4.20
2023-01-28T13:43:04.115Z,4.19
2023-01-28T13:45:32.375Z,4.15
2023-01-28T13:48:32.719Z,4.12
2023-01-28T13:51:01.925Z,4.09
2023-01-28T13:53:56.404Z,4.07
2023-01-28T13:56:28.889Z,4.07
2023-01-28T13:59:07.520Z,4.06
2023-01-28T14:02:14.901Z,4.02
2023-01-28T14:05:23.804Z,3.95
2023-01-28T14:08:17.647Z,3.94
2023-01-28T14:10:59.327Z,3.91
2023-01-28T14:14:17.868Z,3.87
2023-01-28T14:17:12.315Z,3.85
2023-01-28T14:19:39.746Z,3.85
2023-01-28T14:22:08.457Z,3.86
2023-01-28T14:24:38.339Z,3.88
2023-01-28T14:27:28.363Z,3.84
2023-01-28T14:30:25.906Z,3.82
2023-01-28T14:32:54.332Z,3.83
2023-01-28T14:35:34.104Z,3.80
2023-01-28T14:38:07.699Z,3.76
2023-01-28T14:40:39.277Z,3.75
2023-01-28T14:43:18.266Z,3.76
2023-01-28T14:45:51.272Z,3.77
2023-01-28T14:48:43.476Z,3.71
2023-01-28T14:51:44.103Z,3.67
2023-01-28T14:55:00.291Z,3.66
2023-01-28T14:57:52.716Z,3.65
2023-01-28T15:00:28.654Z,3.58
2023-01-28T15:02:55.982Z,3.54
2023-01-28T15:05:28.851Z,3.54
2023-01-28T15:07:56.715Z,3.52
2023-01-28T15:10:31.715Z,3.45
2023-01-28T15:13:06.577Z,3.46
2023-01-28T15:15:39.817Z,3.46
2023-01-28T15:18:23.607Z,3.46
2023-01-28T15:20:54.144Z,3.46
2023-01-28T15:23:42.132Z,3.45
2023-01-28T15:26:28.351Z,3.46
2023-01-28T15:28:56.149Z,3.43
2023-01-28T15:31:34.266Z,3.41
2023-01-28T15:34:16.602Z,3.39
2023-01-28T15:36:43.732Z,3.38
2023-01-28T15:39:23.206Z,3.35
2023-01-28T15:42:03.724Z,3.30
2023-01-28T15:44:36.026Z,3.26
2023-01-28T15:47:21.989Z,3.24
2023-01-28T15:49:54.031Z,3.21
2023-01-28T15:52:21.935Z,3.25
2023-01-28T15:54:52.421Z,3.27
2023-01-28T15:57:30.846Z,3.28
2023-01-28T16:00:25.442Z,3.24
2023-01-28T16:02:55.325Z,3.22
2023-01-28T16:05:32.804Z,3.25
2023-01-28T16:08:12.968Z,3.20
2023-01-28T16:10:39.853Z,3.19
2023-01-28T16:13:20.636Z,3.12
2023-01-28T16:15:51.711Z,3.09
2023-01-28T16:18:29.432Z,3.07
2023-01-28T16:20:57.305Z,3.07
2023-01-28T16:23:27.331Z,3.07
2023-01-28T16:26:06.531Z,3.07
2023-01-28T16:28:33.430Z,3.07
2023-01-28T16:31:00.899Z,3.08
2023-01-28T16:33:28.009Z,3.02
2023-01-28T16:36:07.648Z,3.03
2023-01-28T16:38:34.933Z,3.01
2023-01-28T16:41:01.801Z,3.02
2023-01-28T16:43:28.699Z,2.98
2023-01-28T16:45:55.481Z,3.01
2023-01-28T16:48:22.601Z,2.98
2023-01-28T16:50:49.470Z,2.96
2023-01-28T16:53:32.243Z,2.92
2023-01-28T16:55:59.492Z,2.94
2023-01-28T16:58:27.496Z,3.02
2023-01-28T17:00:54.852Z,3.04
2023-01-28T17:03:22.528Z,3.05
2023-01-28T17:05:49.391Z,3.04
2023-01-28T17:08:16.895Z,3.01
2023-01-28T17:10:43.772Z,2.97
2023-01-28T17:13:10.606Z,2.97
2023-01-28T17:15:37.522Z,2.97
2023-01-28T17:18:04.623Z,2.95
2023-01-28T17:20:32.121Z,2.92
2023-01-28T17:22:58.959Z,2.92
2023-01-28T17:25:25.930Z,2.94
2023-01-28T17:27:52.761Z,2.93
2023-01-28T17:30:20.687Z,2.92
2023-01-28T17:32:47.562Z,2.91
2023-01-28T17:35:15.680Z,2.90
2023-01-28T17:37:42.904Z,2.94
2023-01-28T17:40:12.482Z,2.98
2023-01-28T17:42:39.634Z,3.02
2023-01-28T17:45:06.970Z,3.03
2023-01-28T17:47:33.857Z,3.02
2023-01-28T17:50:00.815Z,3.02
2023-01-28T17:52:27.705Z,3.02
2023-01-28T17:54:54.528Z,3.04
2023-01-28T17:57:21.560Z,2.98
2023-01-28T17:59:48.402Z,3.00
2023-01-28T18:02:15.870Z,2.99
2023-01-28T18:04:43.526Z,2.97
2023-01-28T18:07:11.304Z,3.00
2023-01-28T18:09:40.613Z,3.00
2023-01-28T18:12:11.238Z,2.96
2023-01-28T18:14:38.935Z,2.95
2023-01-28T18:17:07.743Z,2.94
2023-01-28T18:19:35.386Z,2.92
2023-01-28T18:22:02.366Z,2.90
2023-01-28T18:24:30.690Z,2.89
2023-01-28T18:26:59.889Z,2.89
2023-01-28T18:29:29.391Z,2.88
2023-01-28T18:31:57.983Z,2.86
2023-01-28T18:34:28.590Z,2.85
2023-01-28T18:36:57.208Z,2.84
2023-01-28T18:39:27.152Z,2.82
2023-01-28T18:41:57.037Z,2.85
2023-01-28T18:44:25.408Z,2.86
2023-01-28T18:46:53.341Z,2.85
2023-01-28T18:49:20.473Z,2.85
2023-01-28T18:51:47.345Z,2.83
2023-01-28T18:54:15.937Z,2.83
2023-01-28T18:56:43.723Z,2.79
2023-01-28T18:59:13.767Z,2.84
2023-01-28T19:01:42.674Z,2.79
2023-01-28T19:04:10.417Z,2.78
2023-01-28T19:06:37.352Z,2.72
2023-01-28T19:09:08.962Z,2.68
2023-01-28T19:11:37.723Z,2.66
2023-01-28T19:14:04.563Z,2.65
2023-01-28T19:16:31.554Z,2.64
2023-01-28T19:19:00.579Z,2.63
2023-01-28T19:21:30.874Z,2.65
2023-01-28T19:24:01.891Z,2.67
2023-01-28T19:26:31.175Z,2.64
2023-01-28T19:28:59.245Z,2.64
2023-01-28T19:31:27.189Z,2.62
2023-01-28T19:33:57.751Z,2.65
2023-01-28T19:36:26.905Z,2.65
2023-01-28T19:38:59.079Z,2.63
2023-01-28T19:41:28.010Z,2.65
2023-01-28T19:43:56.096Z,2.67
2023-01-28T19:46:23.284Z,2.68
2023-01-28T19:48:50.244Z,2.72
2023-01-28T19:51:17.371Z,2.75
2023-01-28T19:53:44.998Z,2.74
2023-01-28T19:56:15.184Z,2.75
2023-01-28T19:58:43.953Z,2.75
2023-01-28T20:01:14.731Z,2.74
2023-01-28T20:03:42.419Z,2.75
2023-01-28T20:06:14.371Z,2.76
2023-01-28T20:08:41.857Z,2.79
2023-01-28T20:11:15.239Z,2.81
2023-01-28T20:13:45.626Z,2.81
2023-01-28T20:16:20.775Z,2.81
2023-01-28T20:18:54.192Z,2.83
2023-01-28T20:21:22.049Z,2.85
2023-01-28T20:23:51.327Z,2.86
2023-01-28T20:26:21.102Z,2.83
2023-01-28T20:28:48.976Z,2.80
2023-01-28T20:31:16.337Z,2.78
2023-01-28T20:33:43.349Z,2.70
2023-01-28T20:36:13.145Z,2.64
2023-01-28T20:38:47.756Z,2.62
2023-01-28T20:41:20.080Z,2.63
2023-01-28T20:43:48.028Z,2.68
2023-01-28T20:46:21.620Z,2.70
2023-01-28T20:48:48.988Z,2.67
2023-01-28T20:51:19.445Z,2.66
2023-01-28T20:53:48.027Z,2.66
2023-01-28T20:56:19.346Z,2.61
2023-01-28T20:58:49.334Z,2.61
2023-01-28T21:01:22.409Z,2.61
2023-01-28T21:03:49.457Z,2.58
2023-01-28T21:06:16.980Z,2.56
2023-01-28T21:08:44.927Z,2.52
2023-01-28T21:11:12.822Z,2.54
2023-01-28T21:13:40.457Z,2.56
2023-01-28T21:16:07.722Z,2.55
2023-01-28T21:18:34.757Z,2.51
2023-01-28T21:21:14.740Z,2.49
2023-01-28T21:23:41.861Z,2.50
2023-01-28T21:26:09.634Z,2.52
2023-01-28T21:28:36.855Z,2.49
2023-01-28T21:31:14.674Z,2.50
2023-01-28T21:33:41.538Z,2.51
2023-01-28T21:36:11.341Z,2.51
2023-01-28T21:38:38.402Z,2.50
2023-01-28T21:41:05.762Z,2.53
2023-01-28T21:43:33.431Z,2.55
2023-01-28T21:46:02.053Z,2.53
2023-01-28T21:48:29.401Z,2.54
2023-01-28T21:51:14.665Z,2.59
2023-01-28T21:53:42.377Z,2.62
2023-01-28T21:56:09.995Z,2.64
2023-01-28T21:58:56.784Z,2.67
2023-01-28T22:01:24.011Z,2.56
2023-01-28T22:03:50.907Z,2.55
2023-01-28T22:06:17.797Z,2.55
2023-01-28T22:08:45.130Z,2.56
2023-01-28T22:11:12.242Z,2.56
2023-01-28T22:13:39.447Z,2.57
2023-01-28T22:16:07.001Z,2.56
2023-01-28T22:18:34.008Z,2.56
2023-01-28T22:21:06.556Z,2.56
2023-01-28T22:23:33.995Z,2.55
2023-01-28T22:26:01.503Z,2.56
2023-01-28T22:28:29.050Z,2.58
2023-01-28T22:31:05.593Z,2.58
2023-01-28T22:33:32.483Z,2.58
2023-01-28T22:35:59.287Z,2.57
2023-01-28T22:38:26.069Z,2.57
2023-01-28T22:40:52.870Z,2.60
2023-01-28T22:43:19.749Z,2.60
2023-01-28T22:45:46.625Z,2.58
2023-01-28T22:48:13.564Z,2.53
2023-01-28T22:50:40.459Z,2.50
2023-01-28T22:53:07.373Z,2.46
2023-01-28T22:55:34.184Z,2.38
2023-01-28T22:58:01.048Z,2.33
2023-01-28T23:00:28.595Z,2.31
2023-01-28T23:02:55.527Z,2.29
2023-01-28T23:05:22.352Z,2.30
2023-01-28T23:07:49.146Z,2.29
2023-01-28T23:10:16.382Z,2.28
2023-01-28T23:12:44.365Z,2.27
2023-01-28T23:15:30.337Z,2.27
2023-01-28T23:18:15.737Z,2.27
2023-01-28T23:21:00.976Z,2.29
2023-01-28T23:23:46.487Z,2.28
2023-01-28T23:26:13.353Z,2.29
2023-01-28T23:28:40.246Z,2.30
2023-01-28T23:31:07.180Z,2.33
2023-01-28T23:33:34.715Z,2.31
2023-01-28T23:36:01.525Z,2.25
2023-01-28T23:38:28.467Z,2.25
2023-01-28T23:40:55.271Z,2.24
2023-01-28T23:43:22.287Z,2.24
2023-01-28T23:45:49.084Z,2.23
2023-01-28T23:48:15.990Z,2.23
2023-01-28T23:50:42.871Z,2.20
2023-01-28T23:53:13.114Z,2.24
2023-01-28T23:55:40.610Z,2.24
2023-01-28T23:58:07.557Z,2.21
